Time;durP1;ratioP1;P1;durP2;ratioP2;P2;SDS_P1;SDS_P2;PMS_P1;PMS_P2;Temp;Humidity;BMP_temperature;BMP_pressure;BME280_temperature;BME280_humidity;BME280_pressure;Samples;Min_cycle;Max_cycle;Signal;HPM_P1;HPM_P2
2023/11/26 00:00:49;;;;;;;15.10;5.50;;;6.60;98.10;;;;;;5039991;28;20052;-86
2023/11/26 00:03:15;;;;;;;12.82;4.55;;;6.60;98.10;;;;;;5040372;28;20500;-82
2023/11/26 00:05:40;;;;;;;14.80;4.70;;;6.60;98.10;;;;;;5043057;28;20119;-81
2023/11/26 00:08:06;;;;;;;15.05;5.93;;;6.60;98.10;;;;;;5042965;28;20673;-82
2023/11/26 00:10:32;;;;;;;12.40;4.75;;;6.60;98.10;;;;;;5044497;28;20471;-83
2023/11/26 00:12:57;;;;;;;14.60;5.28;;;6.60;98.00;;;;;;5036216;28;20079;-81
2023/11/26 00:15:23;;;;;;;16.15;5.13;;;6.60;98.10;;;;;;5044741;28;20036;-81
2023/11/26 00:17:49;;;;;;;16.65;5.05;;;6.60;98.10;;;;;;5044778;28;20142;-80
2023/11/26 00:20:16;;;;;;;14.88;5.00;;;6.60;98.10;;;;;;5046656;28;20064;-82
2023/11/26 00:22:42;;;;;;;17.80;5.07;;;6.70;98.10;;;;;;5041119;28;20040;-80
2023/11/26 00:25:07;;;;;;;22.20;5.63;;;6.70;98.10;;;;;;5039749;28;20401;-80
2023/11/26 00:27:33;;;;;;;20.45;6.07;;;6.70;98.00;;;;;;5046694;28;20045;-81
2023/11/26 00:29:59;;;;;;;21.65;8.95;;;6.70;98.00;;;;;;5038166;28;20038;-78
2023/11/26 00:32:25;;;;;;;16.35;7.45;;;6.70;98.00;;;;;;5043630;28;20448;-81
2023/11/26 00:34:51;;;;;;;16.10;8.15;;;6.60;98.00;;;;;;5043379;28;20108;-80
2023/11/26 00:37:17;;;;;;;20.50;7.05;;;6.70;98.10;;;;;;5049550;28;20032;-81
2023/11/26 00:39:43;;;;;;;17.40;6.65;;;6.70;98.10;;;;;;5041637;28;20083;-80
2023/11/26 00:42:08;;;;;;;15.20;5.20;;;6.70;98.10;;;;;;5040064;28;20071;-80
2023/11/26 00:44:35;;;;;;;15.68;5.35;;;6.70;98.10;;;;;;5042429;28;20377;-79
2023/11/26 00:47:00;;;;;;;15.32;5.55;;;6.70;98.20;;;;;;5041981;28;20048;-82
2023/11/26 00:49:26;;;;;;;23.23;5.07;;;6.70;98.10;;;;;;5041240;28;20029;-81
2023/11/26 00:51:52;;;;;;;15.38;5.32;;;6.70;98.20;;;;;;5037095;28;20867;-84
2023/11/26 00:54:18;;;;;;;12.30;4.82;;;6.70;98.10;;;;;;5042690;28;20053;-84
2023/11/26 00:56:44;;;;;;;16.23;6.00;;;6.70;98.20;;;;;;5036020;28;20036;-81
2023/11/26 00:59:10;;;;;;;16.55;5.70;;;6.70;98.20;;;;;;5041131;28;20030;-80
2023/11/26 01:01:36;;;;;;;14.95;5.38;;;6.70;98.20;;;;;;5040431;28;20049;-80
2023/11/26 01:04:02;;;;;;;16.48;5.28;;;6.70;98.30;;;;;;5040877;28;20037;-85
2023/11/26 01:06:27;;;;;;;14.13;5.05;;;6.70;98.20;;;;;;5042264;28;20477;-82
2023/11/26 01:08:53;;;;;;;12.40;4.97;;;6.70;98.20;;;;;;5042424;28;20021;-82
2023/11/26 01:11:18;;;;;;;15.05;4.97;;;6.70;98.20;;;;;;5040958;28;20041;-80
2023/11/26 01:13:44;;;;;;;15.60;5.13;;;6.70;98.10;;;;;;5045126;28;20017;-85
2023/11/26 01:16:10;;;;;;;10.38;4.30;;;6.70;98.10;;;;;;5042322;28;20572;-81
2023/11/26 01:18:38;;;;;;;13.95;5.35;;;6.70;98.10;;;;;;5044835;28;20608;-83
2023/11/26 01:21:04;;;;;;;16.23;4.55;;;6.60;98.10;;;;;;5044077;28;20191;-79
2023/11/26 01:23:29;;;;;;;13.05;4.95;;;6.60;98.20;;;;;;5036592;28;20128;-79
2023/11/26 01:25:55;;;;;;;12.45;4.35;;;6.60;98.20;;;;;;5041304;28;20190;-80
2023/11/26 01:28:21;;;;;;;13.27;4.60;;;6.60;98.20;;;;;;5039942;28;20036;-79
2023/11/26 01:30:47;;;;;;;14.20;4.43;;;6.60;98.20;;;;;;5042405;28;20048;-85
2023/11/26 01:33:12;;;;;;;11.32;4.65;;;6.60;98.20;;;;;;5041081;28;20052;-80
2023/11/26 01:35:38;;;;;;;14.57;4.68;;;6.60;98.20;;;;;;5036336;28;20056;-80
2023/11/26 01:38:04;;;;;;;15.05;5.70;;;6.60;98.30;;;;;;5037606;28;20389;-81
2023/11/26 01:40:38;;;;;;;16.65;6.75;;;6.60;98.20;;;;;;5038775;28;20492;-82
2023/11/26 01:43:04;;;;;;;;;;;6.70;98.20;;;;;;5035495;28;20733;-81
2023/11/26 01:45:30;;;;;;;15.88;6.78;;;6.60;98.20;;;;;;5045823;28;19916;-81
2023/11/26 01:47:59;;;;;;;18.33;7.07;;;6.60;98.20;;;;;;5042002;28;20590;-82
2023/11/26 01:50:26;;;;;;;13.35;6.80;;;6.60;98.20;;;;;;5051687;28;20070;-81
2023/11/26 01:52:54;;;;;;;13.15;7.07;;;6.60;98.10;;;;;;5039335;28;20100;-81
2023/11/26 01:55:21;;;;;;;15.73;7.05;;;6.60;98.20;;;;;;5038591;28;20034;-81
2023/11/26 01:57:47;;;;;;;13.40;4.78;;;6.60;98.20;;;;;;5048207;28;20507;-81
2023/11/26 02:00:16;;;;;;;11.50;4.65;;;6.60;98.10;;;;;;5044141;28;20091;-80
2023/11/26 02:02:42;;;;;;;15.48;5.30;;;6.60;98.10;;;;;;5047104;28;20028;-82
2023/11/26 02:05:11;;;;;;;11.73;4.82;;;6.60;98.20;;;;;;5044591;28;20033;-82
2023/11/26 02:07:39;;;;;;;11.90;4.43;;;6.60;98.10;;;;;;5042514;28;20400;-81
2023/11/26 02:10:07;;;;;;;10.15;3.78;;;6.60;98.10;;;;;;5044778;28;20103;-82
2023/11/26 02:12:32;;;;;;;9.90;4.75;;;6.60;98.10;;;;;;5050342;28;20635;-81
2023/11/26 02:14:58;;;;;;;11.20;4.82;;;6.70;98.20;;;;;;5051610;28;20036;-80
2023/11/26 02:17:25;;;;;;;14.65;4.80;;;6.60;98.20;;;;;;5045886;28;20494;-82
2023/11/26 02:19:55;;;;;;;10.18;5.18;;;6.60;98.20;;;;;;5044992;28;20536;-81
2023/11/26 02:22:21;;;;;;;12.63;4.43;;;6.70;98.20;;;;;;5044885;28;20035;-81
2023/11/26 02:24:47;;;;;;;7.72;4.43;;;6.70;98.20;;;;;;5043342;28;20032;-82
2023/11/26 02:27:14;;;;;;;9.98;4.70;;;6.60;98.20;;;;;;5049407;28;20036;-81
2023/11/26 02:29:40;;;;;;;10.73;4.60;;;6.70;98.30;;;;;;5037579;28;20025;-81
2023/11/26 02:32:07;;;;;;;12.88;5.22;;;6.70;98.30;;;;;;5040672;28;20076;-82
2023/11/26 02:34:33;;;;;;;11.80;5.63;;;6.70;98.30;;;;;;5040593;28;20013;-80
2023/11/26 02:36:59;;;;;;;10.63;5.43;;;6.70;98.30;;;;;;5043984;28;20043;-81
2023/11/26 02:39:28;;;;;;;11.93;5.60;;;6.70;98.30;;;;;;5045403;28;20049;-81
2023/11/26 02:41:54;;;;;;;16.40;6.80;;;6.70;98.30;;;;;;5046441;28;20049;-81
2023/11/26 02:44:20;;;;;;;11.70;5.78;;;6.70;98.30;;;;;;5048621;28;20112;-81
2023/11/26 02:46:47;;;;;;;18.70;7.78;;;6.70;98.30;;;;;;5032656;28;20131;-81
2023/11/26 02:49:13;;;;;;;17.30;8.35;;;6.70;98.20;;;;;;5046232;28;20094;-80
2023/11/26 02:51:39;;;;;;;15.50;7.95;;;6.70;98.30;;;;;;5047132;28;20448;-81
2023/11/26 02:54:04;;;;;;;15.25;7.22;;;6.60;98.30;;;;;;5046286;28;20060;-81
2023/11/26 02:56:30;;;;;;;17.90;8.63;;;6.60;98.30;;;;;;5059399;28;20075;-81
2023/11/26 02:58:56;;;;;;;17.02;8.50;;;6.70;98.30;;;;;;5065999;28;20210;-82
2023/11/26 03:01:22;;;;;;;15.05;7.97;;;6.70;98.20;;;;;;5065587;28;20629;-82
2023/11/26 03:03:48;;;;;;;18.50;7.72;;;6.60;98.20;;;;;;5046586;28;20013;-80
2023/11/26 03:06:19;;;;;;;17.30;9.07;;;6.60;98.20;;;;;;5045276;28;20037;-81
2023/11/26 03:08:45;;;;;;;16.63;7.53;;;6.60;98.20;;;;;;5041469;28;20033;-80
2023/11/26 03:13:56;;;;;;;14.88;8.23;;;6.60;98.20;;;;;;5023709;28;20103;-81
2023/11/26 03:16:26;;;;;;;17.35;9.07;;;6.60;98.20;;;;;;5020886;28;20033;-81
2023/11/26 03:18:52;;;;;;;16.08;9.20;;;6.50;98.20;;;;;;5055695;28;20580;-81
2023/11/26 03:21:26;;;;;;;18.10;9.18;;;6.50;98.30;;;;;;5026723;28;20037;-80
2023/11/26 03:23:52;;;;;;;21.67;10.27;;;6.50;98.30;;;;;;5014165;28;20453;-80
2023/11/26 03:26:21;;;;;;;16.48;9.82;;;6.50;98.30;;;;;;5010419;28;20026;-80
2023/11/26 03:28:47;;;;;;;23.80;11.85;;;6.50;98.30;;;;;;5041232;28;20102;-82
2023/11/26 03:31:13;;;;;;;18.95;12.52;;;6.50;98.30;;;;;;5038730;28;20469;-82
2023/11/26 03:33:38;;;;;;;20.05;12.25;;;6.50;98.40;;;;;;5039306;28;20051;-82
2023/11/26 03:36:06;;;;;;;27.20;13.32;;;6.60;98.40;;;;;;5038173;28;20040;-82
2023/11/26 03:38:32;;;;;;;21.35;11.88;;;6.60;98.40;;;;;;5036190;28;20133;-82
2023/11/26 03:40:58;;;;;;;22.65;12.55;;;6.60;98.30;;;;;;5034443;28;20060;-84
2023/11/26 03:43:24;;;;;;;21.85;13.23;;;6.60;98.30;;;;;;5019499;28;20717;-82
2023/11/26 03:45:50;;;;;;;25.38;14.40;;;6.60;98.30;;;;;;5015155;28;20044;-82
2023/11/26 03:48:16;;;;;;;22.88;13.52;;;6.60;98.30;;;;;;5014609;28;20405;-83
2023/11/26 03:50:42;;;;;;;25.13;15.23;;;6.60;98.20;;;;;;5015961;28;20120;-82
2023/11/26 03:53:08;;;;;;;26.23;14.77;;;6.60;98.20;;;;;;5029429;28;20037;-82
2023/11/26 03:55:35;;;;;;;25.30;14.50;;;6.60;98.20;;;;;;5020922;28;20074;-82
2023/11/26 03:58:00;;;;;;;27.15;15.55;;;6.50;98.10;;;;;;5022246;28;20041;-82
2023/11/26 04:00:26;;;;;;;26.52;15.82;;;6.50;98.10;;;;;;5020824;28;20045;-83
2023/11/26 04:02:52;;;;;;;25.90;16.13;;;6.50;98.10;;;;;;5029956;28;20041;-82
2023/11/26 04:05:18;;;;;;;26.83;15.32;;;6.50;98.00;;;;;;5024212;28;20088;-82
2023/11/26 04:07:44;;;;;;;27.50;15.80;;;6.40;98.00;;;;;;5039332;28;20522;-84
2023/11/26 04:10:10;;;;;;;29.25;15.00;;;6.40;98.00;;;;;;5020594;28;20540;-82
2023/11/26 04:12:36;;;;;;;28.70;16.08;;;6.40;97.90;;;;;;5020402;28;20037;-82
2023/11/26 04:15:03;;;;;;;26.55;14.15;;;6.30;97.80;;;;;;5020451;28;20599;-81
2023/11/26 04:17:29;;;;;;;27.08;13.45;;;6.30;97.90;;;;;;5018310;28;20378;-82
2023/11/26 04:19:55;;;;;;;25.20;12.98;;;6.30;97.80;;;;;;5020494;28;20529;-81
2023/11/26 04:22:22;;;;;;;23.92;12.80;;;6.20;97.80;;;;;;5016001;28;20046;-82
2023/11/26 04:24:48;;;;;;;24.52;12.75;;;6.20;97.80;;;;;;5020549;28;20029;-81
2023/11/26 04:27:16;;;;;;;27.45;12.70;;;6.20;97.80;;;;;;5022859;28;20053;-82
2023/11/26 04:29:41;;;;;;;23.30;12.18;;;6.20;97.80;;;;;;5024079;28;20029;-81
2023/11/26 04:32:07;;;;;;;21.02;11.93;;;6.10;97.70;;;;;;5014843;28;20410;-82
2023/11/26 04:34:33;;;;;;;25.05;12.60;;;6.10;97.70;;;;;;5016521;28;20045;-82
2023/11/26 04:36:59;;;;;;;23.02;12.05;;;6.10;97.70;;;;;;5018479;28;20037;-81
2023/11/26 04:39:25;;;;;;;21.23;11.52;;;6.10;97.70;;;;;;5028307;28;20064;-82
2023/11/26 04:41:52;;;;;;;27.00;12.23;;;6.10;97.70;;;;;;5024516;28;20064;-81
2023/11/26 04:44:18;;;;;;;22.88;11.68;;;6.10;97.70;;;;;;5019062;28;20081;-81
2023/11/26 04:46:45;;;;;;;22.40;11.98;;;6.10;97.60;;;;;;5011953;28;20088;-81
2023/11/26 04:49:11;;;;;;;23.98;11.88;;;6.10;97.70;;;;;;5023945;28;20980;-81
2023/11/26 04:51:37;;;;;;;21.65;11.52;;;6.10;97.60;;;;;;5020728;28;20128;-81
2023/11/26 04:54:03;;;;;;;24.15;12.00;;;6.10;97.60;;;;;;5019554;28;20453;-81
2023/11/26 04:56:29;;;;;;;26.27;12.80;;;6.10;97.50;;;;;;5015736;28;20026;-82
2023/11/26 04:58:55;;;;;;;20.88;12.13;;;6.10;97.60;;;;;;5018823;28;20020;-81
2023/11/26 05:01:24;;;;;;;21.20;12.00;;;6.10;97.60;;;;;;5035564;28;20410;-82
2023/11/26 05:03:50;;;;;;;24.60;11.40;;;6.10;97.60;;;;;;5038187;28;20752;-83
2023/11/26 05:06:15;;;;;;;22.42;11.50;;;6.10;97.60;;;;;;5042916;28;20029;-82
2023/11/26 05:08:41;;;;;;;20.42;11.45;;;6.10;97.70;;;;;;5038703;28;20036;-84
2023/11/26 05:11:07;;;;;;;20.10;12.15;;;6.10;97.70;;;;;;5032938;28;20371;-82
2023/11/26 05:13:33;;;;;;;21.75;11.35;;;6.10;97.70;;;;;;5032811;28;20035;-83
2023/11/26 05:15:58;;;;;;;22.35;12.30;;;6.10;97.70;;;;;;5034735;28;20029;-82
2023/11/26 05:18:24;;;;;;;22.15;12.38;;;6.10;97.70;;;;;;5038852;28;20036;-82
2023/11/26 05:20:51;;;;;;;20.98;11.73;;;6.10;97.70;;;;;;5036757;28;20159;-83
2023/11/26 05:23:17;;;;;;;24.40;12.55;;;6.10;97.80;;;;;;5041105;28;20281;-82
2023/11/26 05:25:44;;;;;;;23.25;11.38;;;6.10;97.80;;;;;;5039997;28;20094;-82
2023/11/26 05:28:09;;;;;;;21.85;11.55;;;6.10;97.80;;;;;;5041462;28;20128;-83
2023/11/26 05:30:35;;;;;;;24.48;12.43;;;6.00;97.70;;;;;;5034821;28;20120;-82
2023/11/26 05:33:01;;;;;;;27.38;12.48;;;6.00;97.70;;;;;;5038245;28;20178;-82
2023/11/26 05:35:28;;;;;;;22.17;11.18;;;6.00;97.70;;;;;;5034344;28;20036;-82
2023/11/26 05:37:54;;;;;;;26.85;12.10;;;6.00;97.70;;;;;;5035468;28;20091;-82
2023/11/26 05:40:20;;;;;;;22.27;11.45;;;6.00;97.70;;;;;;5044670;28;20027;-82
2023/11/26 05:42:46;;;;;;;19.70;11.52;;;6.00;97.60;;;;;;5038907;28;20124;-82
2023/11/26 05:45:12;;;;;;;24.10;11.15;;;6.00;97.60;;;;;;5040322;28;20041;-82
2023/11/26 05:47:38;;;;;;;26.63;12.13;;;6.00;97.60;;;;;;5037753;28;20107;-83
2023/11/26 05:50:04;;;;;;;25.13;10.65;;;6.00;97.60;;;;;;5046114;28;20025;-83
2023/11/26 05:52:30;;;;;;;20.60;10.32;;;6.10;97.50;;;;;;5040947;28;20469;-82
2023/11/26 05:54:55;;;;;;;19.85;9.88;;;6.00;97.50;;;;;;5042524;28;20063;-85
2023/11/26 05:57:21;;;;;;;21.92;11.57;;;6.00;97.40;;;;;;5032862;28;20401;-82
2023/11/26 05:59:47;;;;;;;22.48;11.10;;;6.00;97.40;;;;;;5041812;28;20377;-82
2023/11/26 06:02:13;;;;;;;19.90;10.30;;;6.00;97.40;;;;;;5032982;28;20050;-82
2023/11/26 06:04:39;;;;;;;17.88;10.77;;;6.00;97.40;;;;;;5040265;28;20017;-82
2023/11/26 06:07:06;;;;;;;21.73;10.85;;;5.90;97.40;;;;;;5037190;28;20032;-83
2023/11/26 06:09:32;;;;;;;19.73;10.88;;;6.00;97.40;;;;;;5033383;28;20571;-82
2023/11/26 06:11:57;;;;;;;16.17;10.55;;;5.90;97.40;;;;;;5035790;28;20021;-82
2023/11/26 06:14:23;;;;;;;21.65;11.93;;;5.90;97.40;;;;;;5035985;28;20446;-83
2023/11/26 06:16:50;;;;;;;19.45;10.35;;;5.90;97.40;;;;;;5032057;28;20029;-83
2023/11/26 06:19:16;;;;;;;20.98;10.35;;;5.90;97.40;;;;;;5040800;28;20112;-83
2023/11/26 06:21:42;;;;;;;23.42;11.43;;;5.90;97.50;;;;;;5030581;28;20033;-82
2023/11/26 06:24:09;;;;;;;20.73;11.57;;;6.00;97.50;;;;;;5033100;28;20021;-82
2023/11/26 06:26:35;;;;;;;20.85;10.85;;;5.90;97.40;;;;;;5036630;28;20437;-82
2023/11/26 06:29:01;;;;;;;21.25;10.80;;;5.90;97.30;;;;;;5041329;28;20028;-82
2023/11/26 06:31:29;;;;;;;18.85;10.50;;;5.90;97.40;;;;;;5035850;28;20373;-82
2023/11/26 06:33:56;;;;;;;22.30;11.50;;;5.90;97.40;;;;;;5038473;28;20028;-83
2023/11/26 06:36:23;;;;;;;20.50;12.35;;;5.80;97.30;;;;;;5030292;28;20036;-82
2023/11/26 06:38:51;;;;;;;20.98;11.32;;;5.80;97.30;;;;;;5044126;28;20044;-82
2023/11/26 06:41:23;;;;;;;22.33;11.70;;;5.80;97.40;;;;;;5038971;28;20457;-82
2023/11/26 06:43:50;;;;;;;17.70;10.88;;;5.80;97.30;;;;;;5042796;28;20028;-82
2023/11/26 06:46:16;;;;;;;23.95;13.05;;;5.80;97.40;;;;;;5038268;28;20026;-81
2023/11/26 06:48:43;;;;;;;25.65;12.63;;;5.80;97.40;;;;;;5040230;28;20040;-81
2023/11/26 06:51:13;;;;;;;23.83;11.48;;;5.80;97.40;;;;;;5031558;28;20228;-83
2023/11/26 06:53:39;;;;;;;19.40;11.45;;;5.80;97.40;;;;;;5034332;28;20028;-82
2023/11/26 06:56:06;;;;;;;22.85;11.40;;;5.80;97.40;;;;;;5041021;28;20055;-82
2023/11/26 06:58:38;;;;;;;19.98;10.80;;;5.80;97.40;;;;;;5039987;28;20326;-82
2023/11/26 07:01:07;;;;;;;23.20;11.30;;;5.80;97.40;;;;;;5043080;28;20037;-82
2023/11/26 07:03:34;;;;;;;25.77;10.90;;;5.80;97.40;;;;;;5034740;28;20040;-82
2023/11/26 07:06:01;;;;;;;22.73;10.63;;;5.80;97.40;;;;;;5032970;28;20034;-81
2023/11/26 07:08:28;;;;;;;21.70;10.40;;;5.80;97.40;;;;;;5038042;28;20033;-82
2023/11/26 07:10:53;;;;;;;20.35;10.60;;;5.70;97.40;;;;;;5030757;28;20376;-82
2023/11/26 07:13:20;;;;;;;22.67;11.13;;;5.80;97.40;;;;;;5041331;28;20495;-83
2023/11/26 07:15:47;;;;;;;23.23;11.10;;;5.80;97.40;;;;;;5044593;28;20025;-82
2023/11/26 07:18:13;;;;;;;25.35;10.98;;;5.70;97.40;;;;;;5030533;28;20033;-82
2023/11/26 07:20:40;;;;;;;26.15;11.25;;;5.80;97.40;;;;;;5038303;28;20474;-83
2023/11/26 07:23:06;;;;;;;26.08;12.07;;;5.80;97.40;;;;;;5039872;28;20036;-82
2023/11/26 07:25:32;;;;;;;23.52;11.93;;;5.80;97.40;;;;;;5041215;28;21125;-83
2023/11/26 07:27:58;;;;;;;21.65;11.10;;;5.80;97.40;;;;;;5041707;28;20101;-83
2023/11/26 07:30:24;;;;;;;20.75;11.85;;;5.80;97.50;;;;;;5038473;28;20511;-83
2023/11/26 07:32:51;;;;;;;21.58;11.55;;;5.80;97.40;;;;;;5031018;28;20115;-82
2023/11/26 07:35:16;;;;;;;23.80;12.75;;;5.90;97.40;;;;;;5040769;28;20354;-83
2023/11/26 07:37:42;;;;;;;25.83;12.07;;;5.90;97.40;;;;;;5039863;28;20063;-83
2023/11/26 07:40:14;;;;;;;26.25;12.65;;;5.90;97.40;;;;;;5043123;28;20063;-83
2023/11/26 07:42:41;;;;;;;24.25;12.27;;;5.90;97.50;;;;;;5036641;28;20029;-86
2023/11/26 07:45:08;;;;;;;24.83;12.45;;;5.90;97.40;;;;;;5041304;28;20033;-83
2023/11/26 07:47:33;;;;;;;26.25;13.20;;;5.90;97.50;;;;;;5037760;28;20043;-81
2023/11/26 07:49:59;;;;;;;25.08;13.65;;;6.00;97.50;;;;;;5041838;28;20533;-82
2023/11/26 07:52:24;;;;;;;23.35;12.15;;;5.90;97.50;;;;;;5039180;28;20140;-83
2023/11/26 07:54:50;;;;;;;23.98;12.25;;;6.00;97.50;;;;;;5056721;28;20040;-86
2023/11/26 07:57:15;;;;;;;28.00;13.38;;;6.00;97.50;;;;;;5064449;28;20060;-87
2023/11/26 07:59:44;;;;;;;22.85;12.25;;;6.00;97.50;;;;;;5068701;28;20024;-86
2023/11/26 08:02:11;;;;;;;23.10;12.48;;;6.00;97.50;;;;;;5041551;28;20042;-85
2023/11/26 08:04:39;;;;;;;23.77;11.95;;;6.10;97.50;;;;;;5045455;28;20010;-82
2023/11/26 08:07:05;;;;;;;24.77;11.82;;;6.10;97.50;;;;;;5043181;28;20029;-82
2023/11/26 08:09:32;;;;;;;25.13;11.70;;;6.10;97.50;;;;;;5039791;28;20469;-85
2023/11/26 08:12:00;;;;;;;25.95;13.38;;;6.10;97.50;;;;;;5031759;28;20124;-82
2023/11/26 08:14:27;;;;;;;23.70;13.60;;;6.10;97.50;;;;;;5041052;28;20048;-83
2023/11/26 08:16:57;;;;;;;26.17;13.80;;;6.20;97.50;;;;;;5030093;28;20037;-84
2023/11/26 08:19:24;;;;;;;21.17;12.20;;;6.20;97.50;;;;;;5048493;28;20017;-83
2023/11/26 08:21:54;;;;;;;25.90;13.73;;;6.20;97.50;;;;;;5042831;28;20036;-83
2023/11/26 08:24:20;;;;;;;24.40;13.48;;;6.20;97.50;;;;;;5038627;28;20040;-83
2023/11/26 08:26:46;;;;;;;27.88;14.70;;;6.20;97.60;;;;;;5042000;28;20100;-82
2023/11/26 08:29:13;;;;;;;28.95;13.85;;;6.20;97.50;;;;;;5046689;28;20398;-84
2023/11/26 08:31:39;;;;;;;27.00;14.00;;;6.30;97.50;;;;;;5037059;28;20033;-83
2023/11/26 08:34:05;;;;;;;22.98;13.02;;;6.30;97.40;;;;;;5040056;28;20159;-83
2023/11/26 08:36:33;;;;;;;27.70;15.45;;;6.30;97.40;;;;;;5043618;28;20116;-83
2023/11/26 08:39:00;;;;;;;25.60;12.70;;;6.30;97.30;;;;;;5046503;28;20108;-82
2023/11/26 08:41:26;;;;;;;25.30;13.23;;;6.40;97.30;;;;;;5038815;28;20466;-82
2023/11/26 08:43:52;;;;;;;25.00;14.68;;;6.40;97.30;;;;;;5041886;28;20023;-83
2023/11/26 08:46:21;;;;;;;31.40;14.63;;;6.40;97.30;;;;;;5041829;28;20067;-83
2023/11/26 08:48:47;;;;;;;23.38;13.13;;;6.40;97.20;;;;;;5033000;28;20259;-83
2023/11/26 08:51:14;;;;;;;36.65;15.63;;;6.40;97.10;;;;;;5046167;28;20033;-84
2023/11/26 08:53:40;;;;;;;26.00;14.23;;;6.30;97.00;;;;;;5033325;28;20040;-85
2023/11/26 08:56:05;;;;;;;22.75;13.48;;;6.40;97.00;;;;;;5041819;28;20026;-82
2023/11/26 08:58:31;;;;;;;23.00;13.77;;;6.40;96.90;;;;;;5038466;28;20393;-83
2023/11/26 09:00:58;;;;;;;25.27;14.38;;;6.40;97.00;;;;;;5036446;28;20036;-83
2023/11/26 09:03:23;;;;;;;24.88;13.70;;;6.50;97.00;;;;;;5037099;28;20267;-83
2023/11/26 09:05:49;;;;;;;24.55;12.98;;;6.50;96.90;;;;;;5040506;28;20429;-83
2023/11/26 09:08:16;;;;;;;29.63;14.18;;;6.50;96.70;;;;;;5039669;28;20473;-85
2023/11/26 09:10:42;;;;;;;24.80;14.18;;;6.50;96.60;;;;;;5036119;28;20025;-83
2023/11/26 09:13:08;;;;;;;24.52;13.50;;;6.50;96.70;;;;;;5037227;28;20037;-84
2023/11/26 09:15:36;;;;;;;21.20;12.88;;;6.60;96.60;;;;;;5034217;28;20136;-83
2023/11/26 09:18:04;;;;;;;25.50;13.15;;;6.60;96.50;;;;;;5037674;28;20397;-83
2023/11/26 09:20:30;;;;;;;22.00;12.52;;;6.60;96.40;;;;;;5038748;28;20029;-83
2023/11/26 09:22:55;;;;;;;25.92;12.18;;;6.60;96.30;;;;;;5044805;28;20037;-82
2023/11/26 09:25:21;;;;;;;26.38;12.38;;;6.60;96.00;;;;;;5042305;28;20024;-83
2023/11/26 09:27:47;;;;;;;25.33;11.90;;;6.70;96.00;;;;;;5034111;28;20040;-84
2023/11/26 09:30:13;;;;;;;18.23;11.00;;;6.80;96.00;;;;;;5037191;28;20033;-76
2023/11/26 09:32:39;;;;;;;24.67;12.57;;;6.80;95.70;;;;;;5035457;28;20564;-77
2023/11/26 09:35:05;;;;;;;23.52;12.63;;;6.90;95.70;;;;;;5036497;28;20041;-77
2023/11/26 09:37:32;;;;;;;25.08;12.35;;;7.00;95.70;;;;;;5033713;28;20029;-78
2023/11/26 09:39:58;;;;;;;21.38;11.80;;;7.00;95.60;;;;;;5039061;28;20112;-77
2023/11/26 09:42:24;;;;;;;21.27;12.93;;;7.00;95.40;;;;;;5031482;28;20415;-75
2023/11/26 09:44:50;;;;;;;24.63;12.88;;;7.10;95.30;;;;;;5037076;28;20408;-76
2023/11/26 09:47:18;;;;;;;22.05;11.45;;;7.10;95.10;;;;;;5040191;28;20025;-77
2023/11/26 09:49:47;;;;;;;24.30;13.25;;;7.10;95.10;;;;;;5034952;28;20017;-77
2023/11/26 09:52:15;;;;;;;20.20;12.13;;;7.20;94.90;;;;;;5017316;28;20427;-77
2023/11/26 09:54:41;;;;;;;24.60;13.27;;;7.30;94.80;;;;;;5044906;28;20083;-78
2023/11/26 09:57:07;;;;;;;23.95;12.00;;;7.40;94.60;;;;;;5040172;28;20032;-79
2023/11/26 09:59:34;;;;;;;25.00;14.45;;;7.40;94.30;;;;;;5041822;28;20226;-76
2023/11/26 10:02:06;;;;;;;18.20;12.05;;;7.50;94.40;;;;;;5037710;28;20033;-78
2023/11/26 10:04:44;;;;;;;22.90;12.20;;;7.50;94.10;;;;;;5039582;28;20035;-77
2023/11/26 10:07:10;;;;;;;21.00;12.57;;;7.50;93.90;;;;;;5043083;28;20528;-76
2023/11/26 10:09:36;;;;;;;25.27;11.82;;;7.50;93.60;;;;;;5042372;28;20040;-77
2023/11/26 10:12:02;;;;;;;22.48;12.18;;;7.50;93.50;;;;;;5043457;28;20063;-76
2023/11/26 10:14:28;;;;;;;21.88;13.77;;;7.50;93.80;;;;;;5039791;28;20107;-78
2023/11/26 10:16:54;;;;;;;20.95;12.10;;;7.60;93.70;;;;;;5044425;28;20049;-79
2023/11/26 10:19:24;;;;;;;24.00;13.23;;;7.60;93.50;;;;;;5037637;28;20028;-78
2023/11/26 10:21:56;;;;;;;20.05;12.18;;;7.60;93.40;;;;;;5038285;28;20045;-79
2023/11/26 10:24:23;;;;;;;22.73;12.05;;;7.60;93.50;;;;;;5043391;28;20116;-78
2023/11/26 10:26:54;;;;;;;23.25;12.48;;;7.70;93.50;;;;;;5037240;28;20417;-76
2023/11/26 10:29:23;;;;;;;23.55;12.20;;;7.60;93.40;;;;;;5040383;28;20029;-77
2023/11/26 10:32:04;;;;;;;24.88;11.90;;;7.70;93.00;;;;;;5041083;28;20279;-76
2023/11/26 10:34:34;;;;;;;26.05;12.13;;;7.70;93.00;;;;;;5041560;28;20037;-80
2023/11/26 10:37:02;;;;;;;20.90;11.00;;;7.70;92.60;;;;;;5038149;28;20432;-78
2023/11/26 10:39:28;;;;;;;20.23;10.93;;;7.70;92.90;;;;;;5039839;28;20080;-77
2023/11/26 10:41:54;;;;;;;23.73;11.98;;;7.80;92.90;;;;;;5039546;28;20060;-75
2023/11/26 10:44:21;;;;;;;24.77;12.68;;;7.80;92.90;;;;;;5039274;28;20029;-78
2023/11/26 10:46:48;;;;;;;26.95;11.60;;;7.80;92.90;;;;;;5033981;28;20087;-77
2023/11/26 10:49:26;;;;;;;23.83;11.23;;;7.80;92.90;;;;;;5040708;28;20029;-79
2023/11/26 10:52:26;;;;;;;24.08;11.18;;;7.80;93.00;;;;;;5042692;28;20067;-80
2023/11/26 10:54:57;;;;;;;20.00;10.55;;;7.90;93.10;;;;;;5032081;28;20112;-77
2023/11/26 10:57:37;;;;;;;24.08;11.23;;;7.90;93.00;;;;;;5033562;28;20037;-78
2023/11/26 11:00:06;;;;;;;26.33;10.63;;;8.00;92.80;;;;;;5039005;28;20491;-78
2023/11/26 11:02:32;;;;;;;23.02;10.65;;;8.10;92.80;;;;;;5044509;28;20068;-79
2023/11/26 11:05:00;;;;;;;19.75;10.32;;;8.10;92.40;;;;;;5046752;28;20032;-79
2023/11/26 11:07:28;;;;;;;19.90;9.77;;;8.10;92.30;;;;;;5041018;28;20029;-78
2023/11/26 11:10:19;;;;;;;20.85;10.57;;;8.10;92.10;;;;;;5045393;28;20136;-79
2023/11/26 11:12:51;;;;;;;16.83;9.65;;;8.10;92.30;;;;;;5008410;28;20040;-79
2023/11/26 11:15:19;;;;;;;20.02;10.55;;;8.20;92.20;;;;;;5034582;28;20037;-79
2023/11/26 11:17:45;;;;;;;20.25;8.95;;;8.20;92.00;;;;;;5038321;28;20036;-80
2023/11/26 11:20:11;;;;;;;25.90;12.32;;;8.20;91.80;;;;;;5037111;28;20033;-81
2023/11/26 11:22:41;;;;;;;19.70;10.13;;;8.30;92.00;;;;;;5029015;28;20044;-79
2023/11/26 11:25:11;;;;;;;19.48;11.38;;;8.40;91.90;;;;;;5035081;28;20371;-80
2023/11/26 11:27:54;;;;;;;23.08;10.40;;;8.30;91.50;;;;;;5038971;28;20449;-80
2023/11/26 11:30:32;;;;;;;26.67;18.10;;;8.40;91.60;;;;;;5035575;28;20038;-79
2023/11/26 11:33:05;;;;;;;22.60;11.65;;;8.40;91.20;;;;;;5039935;28;20036;-79
2023/11/26 11:35:41;;;;;;;24.00;11.73;;;8.50;90.90;;;;;;5041837;28;20154;-79
2023/11/26 11:38:12;;;;;;;21.33;10.15;;;8.50;90.80;;;;;;5033050;28;20128;-79
2023/11/26 11:41:00;;;;;;;20.92;10.55;;;8.40;90.50;;;;;;5036375;28;20021;-78
2023/11/26 11:43:27;;;;;;;22.30;11.32;;;8.50;91.10;;;;;;5032868;28;20033;-79
2023/11/26 11:45:54;;;;;;;24.25;12.27;;;8.40;91.00;;;;;;5035822;28;20113;-79
2023/11/26 11:48:55;;;;;;;20.13;10.68;;;8.50;91.20;;;;;;5029118;28;20156;-79
2023/11/26 11:51:34;;;;;;;19.80;10.40;;;8.50;91.00;;;;;;5012958;28;20484;-79
2023/11/26 11:54:08;;;;;;;28.73;11.38;;;8.50;91.00;;;;;;5038633;28;20051;-79
2023/11/26 11:56:41;;;;;;;;;;;8.40;90.60;;;;;;5038006;28;20029;-78
2023/11/26 11:59:07;;;;;;;22.63;10.95;;;8.50;91.10;;;;;;5034870;28;20004;-78
2023/11/26 12:01:35;;;;;;;20.85;11.73;;;8.50;91.00;;;;;;5034640;28;20403;-79
2023/11/26 12:04:00;;;;;;;30.85;12.10;;;8.50;91.10;;;;;;5030778;28;20124;-79
2023/11/26 12:06:27;;;;;;;21.85;11.57;;;8.60;91.10;;;;;;5035321;28;20715;-78
2023/11/26 12:09:13;;;;;;;25.17;11.85;;;8.50;90.80;;;;;;5037330;28;20023;-78
2023/11/26 12:11:47;;;;;;;23.98;11.60;;;8.50;91.10;;;;;;5039212;28;20032;-78
2023/11/26 12:14:23;;;;;;;25.67;13.40;;;8.50;90.90;;;;;;5039372;28;20033;-78
2023/11/26 12:16:48;;;;;;;25.17;11.65;;;8.50;91.20;;;;;;5039740;28;20460;-78
2023/11/26 12:19:14;;;;;;;20.55;12.30;;;8.50;90.90;;;;;;5037600;28;20508;-78
2023/11/26 12:21:40;;;;;;;19.30;11.35;;;8.50;90.80;;;;;;5037278;28;20444;-78
2023/11/26 12:24:22;;;;;;;23.05;11.00;;;8.40;90.60;;;;;;5035585;28;20318;-78
2023/11/26 12:26:49;;;;;;;21.77;10.80;;;8.40;90.60;;;;;;5037633;28;20171;-79
2023/11/26 12:29:25;;;;;;;21.58;11.65;;;8.40;90.60;;;;;;5033922;28;20021;-80
2023/11/26 12:31:53;;;;;;;22.08;10.93;;;8.40;90.70;;;;;;5034660;28;20048;-79
2023/11/26 12:34:19;;;;;;;26.77;12.48;;;8.40;90.30;;;;;;5037575;28;20025;-77
2023/11/26 12:36:47;;;;;;;25.75;12.18;;;8.40;90.80;;;;;;5036611;28;20025;-78
2023/11/26 12:39:14;;;;;;;22.00;11.77;;;8.40;90.40;;;;;;5033973;28;20042;-79
2023/11/26 12:41:40;;;;;;;25.63;13.15;;;8.40;90.50;;;;;;5031387;28;20396;-78
2023/11/26 12:44:06;;;;;;;19.27;11.70;;;8.40;90.50;;;;;;5028991;28;20534;-78